createdAt,value
2022-11-12T00:02:25.045Z,5.97
2022-11-12T00:05:29.435Z,10.07
2022-11-12T00:08:32.279Z,10.00
2022-11-12T00:11:35.138Z,10.27
2022-11-12T00:14:37.894Z,8.93
2022-11-12T00:17:41.123Z,9.07
2022-11-12T00:20:45.948Z,10.87
2022-11-12T00:23:48.622Z,9.03
2022-11-12T00:26:51.995Z,8.77
2022-11-12T00:29:54.704Z,9.27
2022-11-12T00:32:57.543Z,9.73
2022-11-12T00:36:01.756Z,9.57
2022-11-12T00:39:05.404Z,9.90
2022-11-12T00:42:08.509Z,9.70
2022-11-12T00:45:11.744Z,10.33
2022-11-12T00:48:14.473Z,9.67
2022-11-12T00:51:18.911Z,9.50
2022-11-12T00:54:21.855Z,10.10
2022-11-12T00:57:24.598Z,9.93
2022-11-12T01:00:28.226Z,9.33
2022-11-12T01:03:30.984Z,9.87
2022-11-12T01:06:35.230Z,9.47
2022-11-12T01:09:38.068Z,9.87
2022-11-12T01:12:41.283Z,9.97
2022-11-12T01:15:44.380Z,9.80
2022-11-12T01:18:48.013Z,9.70
2022-11-12T01:21:52.342Z,10.93
2022-11-12T01:24:55.420Z,9.43
2022-11-12T01:27:59.647Z,9.27
2022-11-12T01:31:11.775Z,10.03
2022-11-12T01:34:14.555Z,7.97
2022-11-12T01:37:19.030Z,9.17
2022-11-12T01:40:22.122Z,9.23
2022-11-12T01:43:24.871Z,9.03
2022-11-12T01:46:31.094Z,9.43
2022-11-12T01:49:40.352Z,9.20
2022-11-12T01:52:49.184Z,9.97
2022-11-12T01:55:53.250Z,10.47
2022-11-12T01:58:59.956Z,6.17
2022-11-12T02:02:03.638Z,5.70
2022-11-12T02:05:10.880Z,6.33
2022-11-12T02:08:15.020Z,7.53
2022-11-12T02:11:19.811Z,7.37
2022-11-12T02:14:22.074Z,8.73
2022-11-12T02:17:25.431Z,8.60
2022-11-12T02:20:28.179Z,7.53
2022-11-12T02:23:32.825Z,7.13
2022-11-12T02:26:38.093Z,7.30
2022-11-12T02:29:46.683Z,8.17
2022-11-12T02:32:49.424Z,8.07
2022-11-12T02:35:52.521Z,9.20
2022-11-12T02:38:56.657Z,9.03
2022-11-12T02:41:59.613Z,8.97
2022-11-12T02:45:02.664Z,8.33
2022-11-12T02:48:05.523Z,8.33
2022-11-12T02:51:08.958Z,9.67
2022-11-12T02:54:12.963Z,7.77
2022-11-12T02:57:15.982Z,9.60
2022-11-12T03:00:19.585Z,9.03
2022-11-12T03:03:22.373Z,7.97
2022-11-12T03:06:25.380Z,6.27
2022-11-12T03:09:29.397Z,5.50
2022-11-12T03:12:32.554Z,6.67
2022-11-12T03:15:35.481Z,5.37
2022-11-12T03:18:38.689Z,5.20
2022-11-12T03:21:41.667Z,5.67
2022-11-12T03:24:45.736Z,5.40
2022-11-12T03:27:48.775Z,6.00
2022-11-12T03:30:51.577Z,5.83
2022-11-12T03:33:54.326Z,6.37
2022-11-12T03:36:57.261Z,6.83
2022-11-12T03:40:01.257Z,7.83
2022-11-12T03:43:04.329Z,7.57
2022-11-12T03:46:07.074Z,7.57
2022-11-12T03:49:09.825Z,5.43
2022-11-12T03:52:12.487Z,5.30
2022-11-12T03:55:18.850Z,5.80
2022-11-12T03:58:21.555Z,7.13
2022-11-12T04:01:24.386Z,5.97
2022-11-12T04:04:47.147Z,6.60
2022-11-12T04:08:07.934Z,5.77
2022-11-12T04:11:15.556Z,5.33
2022-11-12T04:14:18.590Z,5.30
2022-11-12T04:17:38.793Z,5.20
2022-11-12T04:20:59.196Z,5.43
2022-11-12T04:24:02.292Z,5.30
2022-11-12T04:27:06.482Z,5.27
2022-11-12T04:30:19.492Z,4.53
2022-11-12T04:33:22.806Z,4.50
2022-11-12T04:36:25.510Z,4.20
2022-11-12T04:39:28.537Z,5.17
2022-11-12T04:42:49.954Z,4.70
2022-11-12T04:45:54.827Z,4.40
2022-11-12T04:48:57.801Z,4.50
2022-11-12T04:52:06.219Z,4.73
2022-11-12T04:55:10.080Z,5.13
2022-11-12T04:58:14.357Z,4.43
2022-11-12T05:01:17.517Z,4.33
2022-11-12T05:04:20.585Z,4.50
2022-11-12T05:07:23.361Z,3.80
2022-11-12T05:10:26.347Z,4.90
2022-11-12T05:13:30.722Z,4.63
2022-11-12T05:16:33.785Z,4.43
2022-11-12T05:19:36.787Z,5.90
2022-11-12T05:22:47.730Z,4.67
2022-11-12T05:25:53.301Z,5.30
2022-11-12T05:28:57.618Z,5.20
2022-11-12T05:32:00.349Z,5.30
2022-11-12T05:35:03.812Z,5.00
2022-11-12T05:38:06.500Z,6.07
2022-11-12T05:41:09.502Z,5.97
2022-11-12T05:44:13.988Z,5.67
2022-11-12T05:47:16.715Z,6.23
2022-11-12T05:50:19.674Z,5.93
2022-11-12T05:53:22.564Z,6.10
2022-11-12T05:56:25.568Z,6.13
2022-11-12T05:59:29.623Z,5.93
2022-11-12T06:02:32.739Z,5.83
2022-11-12T06:05:36.187Z,6.53
2022-11-12T06:08:39.248Z,5.90
2022-11-12T06:11:41.988Z,5.60
2022-11-12T06:14:46.899Z,6.07
2022-11-12T06:17:49.825Z,6.30
2022-11-12T06:21:06.455Z,6.83
2022-11-12T06:24:09.542Z,6.67
2022-11-12T06:27:12.215Z,6.43
2022-11-12T06:30:16.368Z,6.80
2022-11-12T06:33:19.343Z,6.77
2022-11-12T06:36:22.158Z,6.57
2022-11-12T06:39:25.192Z,7.30
2022-11-12T06:42:28.251Z,6.07
2022-11-12T06:45:32.790Z,7.03
2022-11-12T06:48:36.066Z,7.33
2022-11-12T06:51:39.733Z,7.47
2022-11-12T06:54:42.586Z,7.60
2022-11-12T06:57:45.304Z,8.03
2022-11-12T07:00:50.017Z,7.03
2022-11-12T07:03:53.865Z,7.60
2022-11-12T07:06:56.661Z,8.07
2022-11-12T07:09:59.383Z,7.23
2022-11-12T07:13:02.416Z,7.67
2022-11-12T07:16:09.058Z,7.70
2022-11-12T07:19:11.805Z,8.63
2022-11-12T07:22:14.925Z,8.33
2022-11-12T07:25:17.951Z,8.10
2022-11-12T07:28:21.569Z,7.33
2022-11-12T07:31:26.822Z,7.50
2022-11-12T07:34:29.567Z,7.97
2022-11-12T07:37:32.290Z,7.90
2022-11-12T07:40:35.353Z,7.30
2022-11-12T07:43:39.388Z,7.97
2022-11-12T07:46:43.936Z,8.60
2022-11-12T07:49:46.716Z,8.70
2022-11-12T07:52:49.450Z,8.67
2022-11-12T07:55:56.477Z,8.93
2022-11-12T07:58:59.470Z,9.23
2022-11-12T08:02:03.859Z,8.23
2022-11-12T08:05:14.505Z,8.80
2022-11-12T08:08:20.745Z,9.70
2022-11-12T08:11:24.597Z,8.87
2022-11-12T08:14:27.490Z,8.87
2022-11-12T08:17:31.559Z,11.03
2022-11-12T08:20:34.569Z,9.63
2022-11-12T08:23:37.256Z,10.57
2022-11-12T08:26:40.388Z,9.63
2022-11-12T08:29:43.094Z,9.33
2022-11-12T08:32:47.126Z,7.37
2022-11-12T08:35:50.541Z,7.73
2022-11-12T08:38:54.415Z,8.13
2022-11-12T08:41:57.438Z,7.93
2022-11-12T08:45:00.091Z,8.03
2022-11-12T08:48:07.365Z,8.33
2022-11-12T08:51:10.059Z,7.43
2022-11-12T08:54:12.723Z,7.50
2022-11-12T08:57:15.402Z,7.73
2022-11-12T09:00:19.274Z,7.97
2022-11-12T09:03:25.311Z,8.03
2022-11-12T09:06:27.983Z,9.17
2022-11-12T09:09:30.799Z,9.07
2022-11-12T09:12:33.479Z,9.20
2022-11-12T09:15:38.235Z,6.40
2022-11-12T09:18:43.242Z,9.73
2022-11-12T09:21:46.008Z,9.87
2022-11-12T09:24:49.062Z,10.53
2022-11-12T09:27:51.829Z,9.20
2022-11-12T09:30:56.181Z,8.97
2022-11-12T09:34:00.237Z,8.87
2022-11-12T09:37:03.769Z,10.13
2022-11-12T09:40:07.932Z,10.00
2022-11-12T09:43:16.848Z,9.90
2022-11-12T09:46:36.005Z,9.63
2022-11-12T09:49:45.124Z,8.93
2022-11-12T09:52:50.886Z,9.73
2022-11-12T09:55:54.715Z,9.80
2022-11-12T09:58:57.518Z,11.00
2022-11-12T10:02:05.893Z,9.70
2022-11-12T10:05:26.522Z,10.07
2022-11-12T10:08:42.896Z,11.17
2022-11-12T10:12:21.665Z,10.23
2022-11-12T10:16:06.768Z,9.97
2022-11-12T10:19:25.976Z,9.13
2022-11-12T10:22:44.904Z,10.63
2022-11-12T10:25:50.277Z,9.10
2022-11-12T10:28:59.551Z,10.47
2022-11-12T10:32:03.637Z,10.43
2022-11-12T10:35:06.661Z,10.67
2022-11-12T10:38:18.658Z,9.70
2022-11-12T10:41:25.030Z,10.43
2022-11-12T10:44:28.152Z,11.70
2022-11-12T10:47:33.837Z,12.23
2022-11-12T10:50:41.542Z,14.13
2022-11-12T10:53:46.186Z,11.43
2022-11-12T10:56:55.130Z,11.83
2022-11-12T11:00:10.336Z,14.70
2022-11-12T11:03:20.575Z,11.77
2022-11-12T11:06:27.055Z,13.33
2022-11-12T11:09:31.973Z,12.80
2022-11-12T11:12:35.692Z,10.37
2022-11-12T11:15:39.133Z,12.37
2022-11-12T11:18:44.352Z,11.33
2022-11-12T11:22:07.328Z,14.43
2022-11-12T11:25:30.233Z,12.47
2022-11-12T11:28:42.190Z,13.10
2022-11-12T11:31:55.632Z,11.60
2022-11-12T11:35:13.682Z,13.40
2022-11-12T11:38:26.851Z,12.37
2022-11-12T11:41:51.644Z,13.17
2022-11-12T11:45:03.965Z,10.87
2022-11-12T11:48:17.572Z,11.80
2022-11-12T11:51:37.389Z,12.10
2022-11-12T11:55:00.394Z,12.37
2022-11-12T11:58:18.569Z,11.77
2022-11-12T12:01:27.903Z,10.63
2022-11-12T12:04:46.832Z,12.20
2022-11-12T12:07:55.342Z,11.03
2022-11-12T12:11:09.270Z,10.80
2022-11-12T12:14:29.129Z,10.80
2022-11-12T12:17:47.028Z,11.10
2022-11-12T12:20:59.027Z,10.73
2022-11-12T12:24:05.280Z,11.53
2022-11-12T12:27:12.789Z,11.20
2022-11-12T12:30:20.851Z,12.57
2022-11-12T12:33:33.190Z,11.50
2022-11-12T12:36:39.087Z,12.63
2022-11-12T12:39:51.019Z,11.00
2022-11-12T12:42:58.756Z,12.63
2022-11-12T12:46:03.812Z,12.90
2022-11-12T12:49:12.075Z,11.73
2022-11-12T12:52:15.263Z,14.33
2022-11-12T12:55:40.481Z,13.33
2022-11-12T12:58:45.167Z,12.80
2022-11-12T13:01:56.582Z,14.07
2022-11-12T13:04:59.775Z,13.67
2022-11-12T13:08:06.974Z,13.40
2022-11-12T13:11:10.185Z,14.10
2022-11-12T13:14:50.420Z,14.50
2022-11-12T13:17:54.584Z,18.97
2022-11-12T13:21:13.641Z,19.90
2022-11-12T13:24:16.529Z,16.27
2022-11-12T13:28:05.915Z,16.47
2022-11-12T13:31:26.498Z,17.90
2022-11-12T13:34:34.756Z,22.17
2022-11-12T13:37:44.806Z,16.23
2022-11-12T13:40:52.033Z,18.50
2022-11-12T13:43:55.254Z,17.47
2022-11-12T13:47:01.601Z,15.97
2022-11-12T13:50:09.554Z,16.40
2022-11-12T13:53:22.329Z,16.80
2022-11-12T13:56:29.379Z,17.50
2022-11-12T13:59:32.158Z,16.40
2022-11-12T14:02:41.353Z,17.00
2022-11-12T14:05:50.147Z,15.27
2022-11-12T14:09:15.006Z,14.87
2022-11-12T14:12:36.990Z,15.53
2022-11-12T14:15:57.270Z,14.43
2022-11-12T14:19:15.784Z,15.40
2022-11-12T14:22:22.522Z,14.73
2022-11-12T14:25:27.852Z,16.23
2022-11-12T14:28:32.179Z,15.50
2022-11-12T14:31:34.901Z,16.20
2022-11-12T14:34:37.780Z,16.20
2022-11-12T14:37:49.820Z,15.90
2022-11-12T14:40:55.199Z,14.27
2022-11-12T14:44:12.973Z,16.20
2022-11-12T14:47:19.462Z,16.20
2022-11-12T14:50:27.030Z,16.67
2022-11-12T14:53:38.997Z,19.10
2022-11-12T14:56:47.568Z,18.60
2022-11-12T14:59:50.840Z,19.53
2022-11-12T15:02:59.174Z,19.93
2022-11-12T15:06:11.115Z,19.60
2022-11-12T15:09:21.799Z,18.27
2022-11-12T15:12:27.739Z,18.97
2022-11-12T15:15:30.842Z,17.47
2022-11-12T15:18:35.409Z,18.77
2022-11-12T15:21:38.222Z,18.70
2022-11-12T15:24:44.962Z,23.83
2022-11-12T15:27:47.989Z,20.23
2022-11-12T15:31:02.467Z,29.53
2022-11-12T15:34:45.343Z,24.07
2022-11-12T15:37:48.467Z,17.90
2022-11-12T15:40:57.660Z,18.10
2022-11-12T15:44:01.913Z,17.97
2022-11-12T15:47:05.638Z,18.03
2022-11-12T15:50:17.100Z,16.27
2022-11-12T15:53:19.960Z,17.00
2022-11-12T15:56:24.435Z,16.40
2022-11-12T15:59:27.448Z,18.53
2022-11-12T16:02:31.174Z,15.53
2022-11-12T16:05:33.900Z,17.37
2022-11-12T16:08:36.699Z,17.80
2022-11-12T16:11:41.084Z,17.57
2022-11-12T16:14:44.065Z,17.57
2022-11-12T16:17:48.061Z,18.80
2022-11-12T16:20:50.943Z,17.30
2022-11-12T16:23:53.701Z,22.07
2022-11-12T16:27:02.172Z,17.50
2022-11-12T16:30:07.404Z,33.10
2022-11-12T16:33:12.650Z,20.67
2022-11-12T16:36:16.773Z,23.47
2022-11-12T16:39:19.847Z,20.70
2022-11-12T16:42:24.430Z,17.53
2022-11-12T16:45:34.865Z,16.67
2022-11-12T16:48:38.431Z,17.40
2022-11-12T16:51:41.217Z,14.33
2022-11-12T16:54:44.044Z,15.10
2022-11-12T16:57:48.180Z,15.00
2022-11-12T17:00:51.173Z,14.80
2022-11-12T17:03:55.480Z,15.37
2022-11-12T17:06:58.503Z,14.57
2022-11-12T17:10:02.011Z,15.10
2022-11-12T17:13:06.073Z,15.43
2022-11-12T17:16:09.231Z,13.60
2022-11-12T17:19:12.101Z,13.90
2022-11-12T17:22:14.883Z,14.13
2022-11-12T17:25:17.630Z,13.30
2022-11-12T17:28:21.667Z,14.50
2022-11-12T17:31:24.650Z,14.40
2022-11-12T17:34:27.315Z,15.50
2022-11-12T17:37:31.650Z,17.30
2022-11-12T17:40:34.599Z,17.37
2022-11-12T17:43:39.326Z,20.60
2022-11-12T17:46:42.536Z,17.00
2022-11-12T17:49:45.477Z,17.10
2022-11-12T17:52:48.643Z,16.87
2022-11-12T17:55:57.206Z,16.63
2022-11-12T17:59:02.062Z,16.07
2022-11-12T18:02:04.838Z,15.93
2022-11-12T18:05:08.156Z,17.00
2022-11-12T18:08:10.985Z,15.97
2022-11-12T18:11:15.838Z,16.13
2022-11-12T18:14:20.011Z,16.63
2022-11-12T18:17:22.886Z,15.07
2022-11-12T18:20:25.719Z,16.47
2022-11-12T18:23:28.691Z,13.97
2022-11-12T18:26:31.721Z,14.30
2022-11-12T18:29:36.610Z,15.47
2022-11-12T18:32:41.299Z,16.43
2022-11-12T18:35:44.088Z,15.80
2022-11-12T18:38:49.954Z,15.80
2022-11-12T18:41:52.940Z,15.07
2022-11-12T18:44:57.187Z,13.37
2022-11-12T18:47:59.972Z,16.00
2022-11-12T18:51:07.751Z,15.20
2022-11-12T18:54:10.616Z,17.13
2022-11-12T18:57:13.540Z,15.03
2022-11-12T19:00:18.787Z,13.73
2022-11-12T19:03:21.606Z,13.77
2022-11-12T19:06:25.415Z,13.63
2022-11-12T19:09:28.192Z,11.87
2022-11-12T19:12:30.940Z,14.37
2022-11-12T19:15:36.116Z,14.83
2022-11-12T19:18:40.099Z,14.13
2022-11-12T19:21:43.136Z,13.43
2022-11-12T19:24:45.880Z,14.77
2022-11-12T19:27:48.677Z,14.30
2022-11-12T19:30:52.740Z,15.17
2022-11-12T19:33:55.835Z,14.73
2022-11-12T19:37:26.773Z,12.33
2022-11-12T19:40:21.411Z,14.20
2022-11-12T19:43:25.051Z,13.27
2022-11-12T19:46:30.889Z,14.80
2022-11-12T19:49:34.107Z,14.07
2022-11-12T19:52:36.801Z,13.97
2022-11-12T19:55:40.084Z,13.10
2022-11-12T19:58:45.843Z,13.73
2022-11-12T20:01:50.175Z,13.93
2022-11-12T20:04:52.882Z,15.27
2022-11-12T20:07:55.508Z,13.87
2022-11-12T20:10:58.891Z,13.80
2022-11-12T20:14:01.961Z,14.50
2022-11-12T20:17:06.289Z,16.60
2022-11-12T20:20:10.352Z,15.27
2022-11-12T20:23:13.483Z,14.67
2022-11-12T20:26:17.001Z,13.10
2022-11-12T20:29:19.748Z,15.07
2022-11-12T20:32:24.431Z,12.93
2022-11-12T20:35:27.174Z,12.23
2022-11-12T20:38:30.584Z,14.93
2022-11-12T20:41:34.789Z,13.80
2022-11-12T20:44:37.525Z,16.47
2022-11-12T20:47:41.858Z,12.23
2022-11-12T20:51:09.305Z,15.27
2022-11-12T20:54:07.478Z,13.87
2022-11-12T20:57:10.202Z,13.87
2022-11-12T21:00:17.765Z,16.17
2022-11-12T21:03:24.138Z,17.23
2022-11-12T21:06:29.157Z,14.90
2022-11-12T21:09:32.088Z,17.37
2022-11-12T21:12:34.936Z,14.77
2022-11-12T21:15:37.961Z,13.67
2022-11-12T21:18:42.461Z,13.73
2022-11-12T21:21:45.382Z,15.60
2022-11-12T21:24:48.333Z,17.80
2022-11-12T21:27:51.036Z,14.17
2022-11-12T21:30:53.718Z,18.87
2022-11-12T21:34:00.575Z,14.23
2022-11-12T21:37:03.344Z,13.63
2022-11-12T21:40:07.316Z,13.53
2022-11-12T21:43:10.043Z,12.40
2022-11-12T21:46:16.212Z,13.03
2022-11-12T21:49:20.536Z,12.43
2022-11-12T21:52:23.298Z,11.43
2022-11-12T21:55:26.027Z,13.50
2022-11-12T21:58:29.325Z,12.27
2022-11-12T22:01:34.543Z,14.07
2022-11-12T22:04:38.708Z,13.43
2022-11-12T22:07:41.519Z,12.73
2022-11-12T22:10:44.533Z,12.73
2022-11-12T22:13:47.563Z,16.87
2022-11-12T22:16:50.327Z,15.83
2022-11-12T22:19:54.394Z,15.93
2022-11-12T22:22:57.111Z,16.70
2022-11-12T22:26:00.578Z,12.77
2022-11-12T22:29:03.726Z,15.17
2022-11-12T22:32:06.524Z,15.23
2022-11-12T22:35:10.942Z,14.17
2022-11-12T22:38:14.175Z,12.03
2022-11-12T22:41:18.893Z,16.27
2022-11-12T22:44:21.921Z,14.20
2022-11-12T22:47:24.645Z,14.80
2022-11-12T22:50:28.814Z,13.57
2022-11-12T22:53:32.044Z,14.53
2022-11-12T22:56:35.305Z,13.70
2022-11-12T22:59:38.010Z,12.60
2022-11-12T23:02:44.816Z,12.77
2022-11-12T23:05:57.420Z,11.13
2022-11-12T23:09:02.224Z,13.73
2022-11-12T23:12:05.670Z,13.53
2022-11-12T23:15:09.502Z,13.53
2022-11-12T23:18:12.585Z,11.70
2022-11-12T23:21:18.756Z,10.90
2022-11-12T23:24:21.982Z,10.37
2022-11-12T23:27:24.934Z,10.83
2022-11-12T23:30:27.780Z,10.67
2022-11-12T23:33:30.523Z,11.90
2022-11-12T23:36:34.564Z,10.33
2022-11-12T23:39:37.539Z,11.77
2022-11-12T23:42:40.163Z,11.07
2022-11-12T23:45:43.227Z,11.13
2022-11-12T23:48:45.967Z,10.43
2022-11-12T23:51:50.205Z,10.00
2022-11-12T23:54:52.900Z,8.80
2022-11-12T23:57:55.898Z,10.77
